createdAt,value
2019-03-26T00:00:25.366Z,4.30
2019-03-26T00:02:56.605Z,4.30
2019-03-26T00:05:27.769Z,4.30
2019-03-26T00:07:58.918Z,4.30
2019-03-26T00:10:30.084Z,4.30
2019-03-26T00:13:01.234Z,4.30
2019-03-26T00:15:32.402Z,4.30
2019-03-26T00:18:03.557Z,4.20
2019-03-26T00:20:34.655Z,4.20
2019-03-26T00:23:05.903Z,4.20
2019-03-26T00:25:38.140Z,4.20
2019-03-26T00:28:09.236Z,4.20
2019-03-26T00:30:40.380Z,4.20
2019-03-26T00:33:11.535Z,4.20
2019-03-26T00:35:42.701Z,4.20
2019-03-26T00:38:13.837Z,4.20
2019-03-26T00:40:44.941Z,4.20
2019-03-26T00:43:16.021Z,4.20
2019-03-26T00:45:47.193Z,4.20
2019-03-26T00:48:18.358Z,4.20
2019-03-26T00:50:49.508Z,4.20
2019-03-26T00:53:20.722Z,4.10
2019-03-26T00:55:51.898Z,4.10
2019-03-26T00:58:23.057Z,4.10
2019-03-26T01:00:54.314Z,4.20
2019-03-26T01:03:25.522Z,4.20
2019-03-26T01:05:56.689Z,4.20
2019-03-26T01:08:27.828Z,4.10
2019-03-26T01:10:58.981Z,4.10
2019-03-26T01:13:30.134Z,4.20
2019-03-26T01:16:01.228Z,4.10
2019-03-26T01:18:32.375Z,4.20
2019-03-26T01:21:03.606Z,4.10
2019-03-26T01:23:34.749Z,4.20
2019-03-26T01:26:05.922Z,4.20
2019-03-26T01:28:37.062Z,4.20
2019-03-26T01:31:08.225Z,4.20
2019-03-26T01:33:39.293Z,4.20
2019-03-26T01:36:10.377Z,4.20
2019-03-26T01:38:41.529Z,4.10
2019-03-26T01:41:12.604Z,4.10
2019-03-26T01:43:44.743Z,4.20
2019-03-26T01:46:15.908Z,4.10
2019-03-26T01:48:47.053Z,4.10
2019-03-26T01:51:18.209Z,4.10
2019-03-26T01:53:49.271Z,4.10
2019-03-26T01:56:20.437Z,4.00
2019-03-26T01:58:51.505Z,4.00
2019-03-26T02:01:22.773Z,3.90
2019-03-26T02:03:53.920Z,3.80
2019-03-26T02:06:25.018Z,3.80
2019-03-26T02:08:56.165Z,3.70
2019-03-26T02:11:27.245Z,3.60
2019-03-26T02:13:58.309Z,3.50
2019-03-26T02:16:29.409Z,3.40
2019-03-26T02:19:00.558Z,3.40
2019-03-26T02:21:31.639Z,3.40
2019-03-26T02:24:02.795Z,3.50
2019-03-26T02:26:33.953Z,3.50
2019-03-26T02:29:05.105Z,3.40
2019-03-26T02:31:36.197Z,3.40
2019-03-26T02:34:07.265Z,3.30
2019-03-26T02:36:38.430Z,3.10
2019-03-26T02:39:09.574Z,3.10
2019-03-26T02:41:40.746Z,3.10
2019-03-26T02:44:11.906Z,3.10
2019-03-26T02:46:44.145Z,3.00
2019-03-26T02:49:15.293Z,3.00
2019-03-26T02:51:46.459Z,3.00
2019-03-26T02:54:17.607Z,3.00
2019-03-26T02:56:48.860Z,3.00
2019-03-26T02:59:20.001Z,2.90
2019-03-26T03:01:51.210Z,2.90
2019-03-26T03:04:22.350Z,2.80
2019-03-26T03:06:53.538Z,2.60
2019-03-26T03:09:24.619Z,2.60
2019-03-26T03:11:55.846Z,2.60
2019-03-26T03:14:26.997Z,2.50
2019-03-26T03:16:58.085Z,2.60
2019-03-26T03:19:29.248Z,2.60
2019-03-26T03:22:00.424Z,2.60
2019-03-26T03:24:31.565Z,2.60
2019-03-26T03:27:02.793Z,2.70
2019-03-26T03:29:33.941Z,2.60
2019-03-26T03:32:05.090Z,2.60
2019-03-26T03:34:36.234Z,2.50
2019-03-26T03:37:07.397Z,2.40
2019-03-26T03:39:38.609Z,2.30
2019-03-26T03:42:09.813Z,2.40
2019-03-26T03:44:40.962Z,2.40
2019-03-26T03:47:14.909Z,2.30
2019-03-26T03:49:46.386Z,2.40
2019-03-26T03:52:20.209Z,2.30
2019-03-26T03:54:52.494Z,2.30
2019-03-26T03:57:26.326Z,2.30
2019-03-26T04:00:09.080Z,2.20
2019-03-26T04:02:40.253Z,2.20
2019-03-26T04:05:11.403Z,2.30
2019-03-26T04:13:21.983Z,2.40
2019-03-26T04:15:53.094Z,2.40
2019-03-26T04:18:24.257Z,2.40
2019-03-26T04:20:55.388Z,2.30
2019-03-26T04:23:26.482Z,2.40
2019-03-26T04:25:57.650Z,2.40
2019-03-26T04:28:28.875Z,2.40
2019-03-26T04:30:59.945Z,2.40
2019-03-26T04:33:31.121Z,2.40
2019-03-26T04:36:03.252Z,2.40
2019-03-26T04:38:34.410Z,2.50
2019-03-26T04:41:05.548Z,2.50
2019-03-26T04:43:36.625Z,2.50
2019-03-26T04:46:07.709Z,2.50
2019-03-26T04:48:38.881Z,2.40
2019-03-26T04:51:10.026Z,2.40
2019-03-26T04:53:41.113Z,2.40
2019-03-26T04:56:12.257Z,2.30
2019-03-26T04:58:44.074Z,2.30
2019-03-26T05:01:15.276Z,2.30
2019-03-26T05:03:46.379Z,2.30
2019-03-26T05:06:17.546Z,2.30
2019-03-26T05:08:48.694Z,2.20
2019-03-26T05:11:19.756Z,2.10
2019-03-26T05:13:50.934Z,2.10
2019-03-26T05:16:22.085Z,2.10
2019-03-26T05:18:53.257Z,2.00
2019-03-26T05:21:24.409Z,2.00
2019-03-26T05:23:55.545Z,2.00
2019-03-26T05:26:26.686Z,2.10
2019-03-26T05:28:57.807Z,2.30
2019-03-26T05:31:28.958Z,2.40
2019-03-26T05:34:00.150Z,2.30
2019-03-26T05:36:31.300Z,2.30
2019-03-26T05:39:02.544Z,2.30
2019-03-26T05:41:33.633Z,2.30
2019-03-26T05:44:04.890Z,2.30
2019-03-26T05:46:36.025Z,2.50
2019-03-26T05:49:07.270Z,2.50
2019-03-26T05:51:38.355Z,2.60
2019-03-26T05:54:09.645Z,2.70
2019-03-26T05:56:40.778Z,2.70
2019-03-26T05:59:11.961Z,2.90
2019-03-26T06:01:43.196Z,2.90
2019-03-26T06:04:14.364Z,2.90
2019-03-26T06:06:45.512Z,2.80
2019-03-26T06:09:16.622Z,2.70
2019-03-26T06:11:47.769Z,2.80
2019-03-26T06:14:18.937Z,2.90
2019-03-26T06:16:50.074Z,2.90
2019-03-26T06:19:21.325Z,2.90
2019-03-26T06:21:52.439Z,3.00
2019-03-26T06:24:23.622Z,3.10
2019-03-26T06:26:54.770Z,3.20
2019-03-26T06:29:25.930Z,3.20
2019-03-26T06:31:57.140Z,3.20
2019-03-26T06:34:28.333Z,3.20
2019-03-26T06:36:59.418Z,3.30
2019-03-26T06:39:30.590Z,3.30
2019-03-26T06:42:01.737Z,3.40
2019-03-26T06:44:32.924Z,3.40
2019-03-26T06:47:04.090Z,3.50
2019-03-26T06:49:35.202Z,3.50
2019-03-26T06:52:06.450Z,3.40
2019-03-26T06:54:37.583Z,3.50
2019-03-26T06:57:08.733Z,3.60
2019-03-26T06:59:39.909Z,3.60
2019-03-26T07:02:11.491Z,3.80
2019-03-26T07:04:47.267Z,3.90
2019-03-26T07:07:30.486Z,3.90
2019-03-26T07:09:51.254Z,4.00
2019-03-26T07:12:22.384Z,4.00
2019-03-26T07:14:53.548Z,4.00
2019-03-26T07:17:24.692Z,4.10
2019-03-26T07:19:55.878Z,4.00
2019-03-26T07:22:28.077Z,4.00
2019-03-26T07:24:59.247Z,4.10
2019-03-26T07:27:30.520Z,4.10
2019-03-26T07:30:01.640Z,4.20
2019-03-26T07:32:32.782Z,4.10
2019-03-26T07:35:04.012Z,4.30
2019-03-26T07:37:44.928Z,4.50
2019-03-26T07:40:08.429Z,4.60
2019-03-26T07:42:39.653Z,4.70
2019-03-26T07:45:12.065Z,4.90
2019-03-26T07:47:43.282Z,5.00
2019-03-26T07:50:14.438Z,5.10
2019-03-26T07:52:45.584Z,5.20
2019-03-26T07:55:16.748Z,5.30
2019-03-26T07:57:47.901Z,5.40
2019-03-26T08:00:22.560Z,5.50
2019-03-26T08:02:53.641Z,5.50
2019-03-26T08:05:29.701Z,5.70
2019-03-26T08:07:58.748Z,5.70
2019-03-26T08:10:30.133Z,5.80
2019-03-26T08:13:01.224Z,5.90
2019-03-26T08:15:32.447Z,5.80
2019-03-26T08:18:03.562Z,5.80
2019-03-26T08:20:34.749Z,5.70
2019-03-26T08:23:05.821Z,5.80
2019-03-26T08:25:37.009Z,5.90
2019-03-26T08:28:08.072Z,5.80
2019-03-26T08:30:39.181Z,5.80
2019-03-26T08:33:10.332Z,6.00
2019-03-26T08:35:41.518Z,6.10
2019-03-26T08:38:13.506Z,6.20
2019-03-26T08:40:44.918Z,6.20
2019-03-26T08:43:16.052Z,6.40
2019-03-26T08:45:47.252Z,6.80
2019-03-26T08:48:18.357Z,6.70
2019-03-26T08:50:49.453Z,6.40
2019-03-26T08:53:20.607Z,6.20
2019-03-26T08:55:51.793Z,6.10
2019-03-26T08:58:22.845Z,6.10
2019-03-26T09:00:53.962Z,6.40
2019-03-26T09:03:25.109Z,6.40
2019-03-26T09:05:56.216Z,6.50
2019-03-26T09:08:27.375Z,6.90
2019-03-26T09:10:58.555Z,6.90
2019-03-26T09:13:29.701Z,7.00
2019-03-26T09:16:00.790Z,7.00
2019-03-26T09:18:31.930Z,6.80
2019-03-26T09:21:03.102Z,6.80
2019-03-26T09:23:34.330Z,7.00
2019-03-26T09:26:05.479Z,7.20
2019-03-26T09:28:36.621Z,7.20
2019-03-26T09:31:07.756Z,7.10
2019-03-26T09:33:38.917Z,7.20
2019-03-26T09:36:10.060Z,7.30
2019-03-26T09:38:41.252Z,7.80
2019-03-26T09:41:12.385Z,8.40
2019-03-26T09:43:43.571Z,9.10
2019-03-26T09:46:14.698Z,10.10
2019-03-26T09:48:45.854Z,10.30
2019-03-26T09:51:16.994Z,9.30
2019-03-26T09:53:48.158Z,9.10
2019-03-26T09:56:29.166Z,9.40
2019-03-26T09:58:52.080Z,9.40
2019-03-26T10:01:23.224Z,9.80
2019-03-26T10:03:54.388Z,9.30
2019-03-26T10:06:25.542Z,10.30
2019-03-26T10:08:56.794Z,11.60
2019-03-26T10:11:28.027Z,13.30
2019-03-26T10:13:59.294Z,12.40
2019-03-26T10:16:30.441Z,11.30
2019-03-26T10:19:01.614Z,10.90
2019-03-26T10:21:32.773Z,10.70
2019-03-26T10:24:03.869Z,11.70
2019-03-26T10:26:36.173Z,11.50
2019-03-26T10:29:23.970Z,10.60
2019-03-26T10:31:40.130Z,10.30
2019-03-26T10:34:11.292Z,9.40
2019-03-26T10:36:42.620Z,9.40
2019-03-26T10:39:13.813Z,9.40
2019-03-26T10:41:44.976Z,9.40
2019-03-26T10:44:16.116Z,9.70
2019-03-26T10:46:47.203Z,9.80
2019-03-26T10:49:18.372Z,9.80
2019-03-26T10:51:49.498Z,9.80
2019-03-26T10:54:20.666Z,9.80
2019-03-26T10:56:51.840Z,9.90
2019-03-26T10:59:22.982Z,10.00
2019-03-26T11:01:54.062Z,9.50
2019-03-26T11:04:25.322Z,8.80
2019-03-26T11:06:56.454Z,9.50
2019-03-26T11:09:27.625Z,10.10
2019-03-26T11:11:58.740Z,10.50
2019-03-26T11:14:31.761Z,12.30
2019-03-26T11:17:02.701Z,13.10
2019-03-26T11:19:33.877Z,13.20
2019-03-26T11:22:05.033Z,13.20
2019-03-26T11:24:36.277Z,13.60
2019-03-26T11:27:07.347Z,14.80
2019-03-26T11:29:38.544Z,15.40
2019-03-26T11:32:09.669Z,14.90
2019-03-26T11:34:40.911Z,14.40
2019-03-26T11:37:12.120Z,13.30
2019-03-26T11:39:43.202Z,12.30
2019-03-26T11:42:14.364Z,11.40
2019-03-26T11:44:45.546Z,11.40
2019-03-26T11:47:16.692Z,10.70
2019-03-26T11:49:47.874Z,10.80
2019-03-26T11:52:19.010Z,11.00
2019-03-26T11:54:50.174Z,11.10
2019-03-26T11:57:21.297Z,11.00
2019-03-26T11:59:52.376Z,10.90
2019-03-26T12:02:23.579Z,10.40
2019-03-26T12:04:54.822Z,10.50
2019-03-26T12:07:25.875Z,10.30
2019-03-26T12:09:57.026Z,10.20
2019-03-26T12:12:28.165Z,10.10
2019-03-26T12:14:59.309Z,9.90
2019-03-26T12:17:30.357Z,9.80
2019-03-26T12:20:02.655Z,9.60
2019-03-26T12:22:33.797Z,9.90
2019-03-26T12:25:05.341Z,10.00
2019-03-26T12:27:36.981Z,9.90
2019-03-26T12:30:08.726Z,9.90
2019-03-26T12:32:41.092Z,9.70
2019-03-26T12:35:17.802Z,9.80
2019-03-26T12:37:49.043Z,9.80
2019-03-26T12:40:20.240Z,10.00
2019-03-26T12:42:51.365Z,10.50
2019-03-26T12:45:22.525Z,10.90
2019-03-26T12:47:53.668Z,10.60
2019-03-26T12:50:24.828Z,10.90
2019-03-26T12:52:55.918Z,12.00
2019-03-26T12:55:27.164Z,13.10
2019-03-26T12:57:58.394Z,13.20
2019-03-26T13:00:33.419Z,13.20
2019-03-26T13:03:04.621Z,13.50
2019-03-26T13:05:35.778Z,13.40
2019-03-26T13:08:06.912Z,13.30
2019-03-26T13:10:38.148Z,13.50
2019-03-26T13:13:09.365Z,13.40
2019-03-26T13:15:40.474Z,13.10
2019-03-26T13:18:11.705Z,12.00
2019-03-26T13:20:42.953Z,11.50
2019-03-26T13:23:14.076Z,11.10
2019-03-26T13:25:45.345Z,11.30
2019-03-26T13:28:16.434Z,11.10
2019-03-26T13:30:47.586Z,11.10
2019-03-26T13:33:18.713Z,11.60
2019-03-26T13:35:49.893Z,11.50
2019-03-26T13:38:21.027Z,11.40
2019-03-26T13:40:53.353Z,11.40
2019-03-26T13:43:24.490Z,11.20
2019-03-26T13:45:55.560Z,12.00
2019-03-26T13:48:26.694Z,12.40
2019-03-26T13:50:57.854Z,12.50
2019-03-26T13:53:28.985Z,12.60
2019-03-26T13:56:00.135Z,13.10
2019-03-26T13:58:31.296Z,12.60
2019-03-26T14:01:02.459Z,13.00
2019-03-26T14:03:33.518Z,13.30
2019-03-26T14:06:04.673Z,13.80
2019-03-26T14:08:35.765Z,12.70
2019-03-26T14:11:07.346Z,12.20
2019-03-26T14:13:38.560Z,11.60
2019-03-26T14:16:09.725Z,11.10
2019-03-26T14:18:40.857Z,11.80
2019-03-26T14:21:12.021Z,11.70
2019-03-26T14:23:43.099Z,11.60
2019-03-26T14:26:14.253Z,11.70
2019-03-26T14:28:45.457Z,11.50
2019-03-26T14:31:16.599Z,11.00
2019-03-26T14:33:47.730Z,11.60
2019-03-26T14:36:18.984Z,11.60
2019-03-26T14:38:50.129Z,11.70
2019-03-26T14:41:21.293Z,11.40
2019-03-26T14:43:52.451Z,10.80
2019-03-26T14:46:23.621Z,11.10
2019-03-26T14:48:54.766Z,11.30
2019-03-26T14:51:25.946Z,11.30
2019-03-26T14:53:57.081Z,11.20
2019-03-26T14:56:28.255Z,11.00
2019-03-26T14:58:59.392Z,11.30
2019-03-26T15:01:30.585Z,11.10
2019-03-26T15:04:01.805Z,10.80
2019-03-26T15:06:33.045Z,11.20
2019-03-26T15:09:05.874Z,11.30
2019-03-26T15:11:37.218Z,10.70
2019-03-26T15:14:08.302Z,10.70
2019-03-26T15:16:39.445Z,10.90
2019-03-26T15:19:10.610Z,10.50
2019-03-26T15:21:42.015Z,10.30
2019-03-26T15:24:13.137Z,10.10
2019-03-26T15:26:44.367Z,10.00
2019-03-26T15:29:15.538Z,10.00
2019-03-26T15:31:47.749Z,10.10
2019-03-26T15:34:18.851Z,10.10
2019-03-26T15:36:49.985Z,9.70
2019-03-26T15:39:21.057Z,9.60
2019-03-26T15:41:52.135Z,9.60
2019-03-26T15:44:23.292Z,9.70
2019-03-26T15:46:54.373Z,9.50
2019-03-26T15:49:25.521Z,9.30
2019-03-26T15:51:56.585Z,9.50
2019-03-26T15:54:27.664Z,9.30
2019-03-26T15:56:58.792Z,9.30
2019-03-26T15:59:29.952Z,9.30
2019-03-26T16:02:01.155Z,9.20
2019-03-26T16:04:32.348Z,9.30
2019-03-26T16:07:03.609Z,9.30
2019-03-26T16:09:34.757Z,9.30
2019-03-26T16:12:05.880Z,9.10
2019-03-26T16:14:36.992Z,8.80
2019-03-26T16:17:08.130Z,9.00
2019-03-26T16:19:39.208Z,9.00
2019-03-26T16:22:11.207Z,8.80
2019-03-26T16:24:42.369Z,9.00
2019-03-26T16:27:13.502Z,9.20
2019-03-26T16:29:44.679Z,9.10
2019-03-26T16:32:15.829Z,9.10
2019-03-26T16:34:46.910Z,9.00
2019-03-26T16:37:18.121Z,8.90
2019-03-26T16:39:50.595Z,8.80
2019-03-26T16:42:21.906Z,8.60
2019-03-26T16:44:53.066Z,8.40
2019-03-26T16:47:25.128Z,8.40
2019-03-26T16:49:56.583Z,8.30
2019-03-26T16:52:27.720Z,8.20
2019-03-26T16:54:59.009Z,8.20
2019-03-26T16:57:30.158Z,8.10
2019-03-26T17:00:01.381Z,7.90
2019-03-26T17:02:33.618Z,7.90
2019-03-26T17:05:05.054Z,7.90
2019-03-26T17:07:36.721Z,7.70
2019-03-26T17:10:09.411Z,7.60
2019-03-26T17:12:40.575Z,7.70
2019-03-26T17:15:11.795Z,7.50
2019-03-26T17:17:42.987Z,7.40
2019-03-26T17:20:14.197Z,7.30
2019-03-26T17:22:45.423Z,7.30
2019-03-26T17:25:19.671Z,7.20
2019-03-26T17:27:51.160Z,7.20
2019-03-26T17:30:22.752Z,7.20
2019-03-26T17:32:53.910Z,7.20
2019-03-26T17:35:25.108Z,7.20
2019-03-26T17:38:00.094Z,7.20
2019-03-26T17:40:29.206Z,7.20
2019-03-26T17:43:00.273Z,7.20
2019-03-26T17:45:31.366Z,7.20
2019-03-26T17:48:02.556Z,7.20
2019-03-26T17:50:33.714Z,7.20
2019-03-26T17:53:04.846Z,7.10
2019-03-26T17:55:36.078Z,7.10
2019-03-26T17:58:08.485Z,7.00
2019-03-26T18:00:42.949Z,7.00
2019-03-26T18:03:25.722Z,6.90
2019-03-26T18:05:47.384Z,6.90
2019-03-26T18:08:18.527Z,6.80
2019-03-26T18:10:49.729Z,6.80
2019-03-26T18:13:21.192Z,6.70
2019-03-26T18:15:52.375Z,6.80
2019-03-26T18:18:23.514Z,6.90
2019-03-26T18:20:54.667Z,6.80
2019-03-26T18:23:25.806Z,6.80
2019-03-26T18:25:56.981Z,6.80
2019-03-26T18:28:28.121Z,6.70
2019-03-26T18:30:59.321Z,6.60
2019-03-26T18:33:30.392Z,6.70
2019-03-26T18:36:01.574Z,6.60
2019-03-26T18:38:32.709Z,6.60
2019-03-26T18:41:03.928Z,6.60
2019-03-26T18:43:35.140Z,6.50
2019-03-26T18:46:06.221Z,6.50
2019-03-26T18:48:37.363Z,6.50
2019-03-26T18:51:08.551Z,6.40
2019-03-26T18:53:39.709Z,6.50
2019-03-26T18:56:10.955Z,6.50
2019-03-26T18:58:42.326Z,6.50
2019-03-26T19:01:13.505Z,6.60
2019-03-26T19:03:44.647Z,6.60
2019-03-26T19:06:15.809Z,6.50
2019-03-26T19:08:46.921Z,6.50
2019-03-26T19:11:18.037Z,6.50
2019-03-26T19:13:49.253Z,6.50
2019-03-26T19:16:20.439Z,6.60
2019-03-26T19:18:51.634Z,6.50
2019-03-26T19:21:23.233Z,6.50
2019-03-26T19:24:04.003Z,6.50
2019-03-26T19:26:27.169Z,6.50
2019-03-26T19:28:58.406Z,6.50
2019-03-26T19:31:29.572Z,6.50
2019-03-26T19:34:00.704Z,6.40
2019-03-26T19:36:31.789Z,6.40
2019-03-26T19:39:06.445Z,6.40
2019-03-26T19:41:36.609Z,6.40
2019-03-26T19:44:07.668Z,6.50
2019-03-26T19:46:38.771Z,6.40
2019-03-26T19:49:09.909Z,6.40
2019-03-26T19:51:40.993Z,6.40
2019-03-26T19:54:12.055Z,6.40
2019-03-26T19:56:43.142Z,6.50
2019-03-26T19:59:14.217Z,6.50
2019-03-26T20:01:45.562Z,6.50
2019-03-26T20:04:16.854Z,6.50
2019-03-26T20:06:48.659Z,6.40
2019-03-26T20:09:19.866Z,6.40
2019-03-26T20:11:51.038Z,6.50
2019-03-26T20:14:22.193Z,6.40
2019-03-26T20:16:53.357Z,6.50
2019-03-26T20:19:24.794Z,6.40
2019-03-26T20:21:56.200Z,6.30
2019-03-26T20:24:27.357Z,6.20
2019-03-26T20:26:58.583Z,6.10
2019-03-26T20:29:29.734Z,6.10
2019-03-26T20:32:00.902Z,6.10
2019-03-26T20:34:32.165Z,6.20
2019-03-26T20:37:03.396Z,6.10
2019-03-26T20:39:34.656Z,6.10
2019-03-26T20:42:05.859Z,6.00
2019-03-26T20:44:36.997Z,6.00
2019-03-26T20:47:08.237Z,5.90
2019-03-26T20:49:39.305Z,5.90
2019-03-26T20:52:10.462Z,5.90
2019-03-26T20:54:41.617Z,5.90
2019-03-26T20:57:12.967Z,6.00
2019-03-26T20:59:44.104Z,6.00
2019-03-26T21:02:15.389Z,6.00
2019-03-26T21:04:46.457Z,5.90
2019-03-26T21:07:18.806Z,5.80
2019-03-26T21:09:49.951Z,5.70
2019-03-26T21:12:21.117Z,5.60
2019-03-26T21:14:52.269Z,5.60
2019-03-26T21:17:23.365Z,5.60
2019-03-26T21:19:54.511Z,5.60
2019-03-26T21:22:25.680Z,5.60
2019-03-26T21:24:57.903Z,5.60
2019-03-26T21:27:29.101Z,5.60
2019-03-26T21:30:10.106Z,5.60
2019-03-26T21:32:33.181Z,5.60
2019-03-26T21:35:04.420Z,5.60
2019-03-26T21:37:35.581Z,5.60
2019-03-26T21:40:07.307Z,5.60
2019-03-26T21:42:38.464Z,5.60
2019-03-26T21:45:10.058Z,5.70
2019-03-26T21:47:41.494Z,5.70
2019-03-26T21:50:12.777Z,5.70
2019-03-26T21:52:43.928Z,5.60
2019-03-26T21:55:15.602Z,5.60
2019-03-26T21:57:46.685Z,5.60
2019-03-26T22:00:18.035Z,5.60
2019-03-26T22:02:49.208Z,5.60
2019-03-26T22:05:20.274Z,5.60
2019-03-26T22:07:51.358Z,5.60
2019-03-26T22:10:22.504Z,5.60
2019-03-26T22:12:53.652Z,5.60
2019-03-26T22:15:24.725Z,5.50
2019-03-26T22:17:55.894Z,5.60
2019-03-26T22:20:27.037Z,5.50
2019-03-26T22:22:58.521Z,5.50
2019-03-26T22:25:29.621Z,5.50
2019-03-26T22:28:00.789Z,5.50
2019-03-26T22:30:31.927Z,5.40
2019-03-26T22:33:03.107Z,5.50
2019-03-26T22:35:34.250Z,5.50
2019-03-26T22:38:05.421Z,5.50
2019-03-26T22:40:36.552Z,5.50
2019-03-26T22:43:07.640Z,5.50
2019-03-26T22:45:38.771Z,5.50
2019-03-26T22:48:09.954Z,5.50
2019-03-26T22:50:41.096Z,5.50
2019-03-26T22:53:12.257Z,5.50
2019-03-26T22:55:43.492Z,5.50
2019-03-26T22:58:14.666Z,5.50
2019-03-26T23:00:46.193Z,5.40
2019-03-26T23:03:19.049Z,5.40
2019-03-26T23:05:50.113Z,5.50
2019-03-26T23:08:22.276Z,5.50
2019-03-26T23:10:53.497Z,5.50
2019-03-26T23:13:24.590Z,5.50
2019-03-26T23:15:55.911Z,5.50
2019-03-26T23:18:27.072Z,5.50
2019-03-26T23:20:58.158Z,5.40
2019-03-26T23:23:29.339Z,5.40
2019-03-26T23:26:00.474Z,5.40
2019-03-26T23:28:31.574Z,5.40
2019-03-26T23:31:02.811Z,5.40
2019-03-26T23:33:33.954Z,5.40
2019-03-26T23:36:05.058Z,5.40
2019-03-26T23:38:36.377Z,5.30
2019-03-26T23:41:07.532Z,5.30
2019-03-26T23:43:38.689Z,5.30
2019-03-26T23:46:09.830Z,5.20
2019-03-26T23:48:41.002Z,5.30
2019-03-26T23:51:12.082Z,5.30
2019-03-26T23:53:44.126Z,5.30
2019-03-26T23:56:15.264Z,5.30
2019-03-26T23:58:46.434Z,5.30
